sensor_id;sensor_type;location;lat;lon;timestamp;P1;durP1;ratioP1;P2;durP2;ratioP2
78075;SDS011;67714;52.546;13.422;2023-02-28T00:01:23;11.2;;;6.1;;
78075;SDS011;67714;52.546;13.422;2023-02-28T00:03:24;13.6;;;7.5;;
78075;SDS011;67714;52.546;13.422;2023-02-28T00:05:25;12.7;;;6.9;;
78075;SDS011;67714;52.546;13.422;2023-02-28T00:07:28;12.7;;;6.1;;
78075;SDS011;67714;52.546;13.422;2023-02-28T00:09:29;11.9;;;6.4;;
78075;SDS011;67714;52.546;13.422;2023-02-28T00:11:31;10.8;;;5.8;;
78075;SDS011;67714;52.546;13.422;2023-02-28T00:13:33;10.8;;;5.8;;
78075;SDS011;67714;52.546;13.422;2023-02-28T00:15:36;9.9;;;5.9;;
78075;SDS011;67714;52.546;13.422;2023-02-28T00:17:37;9.8;;;5.4;;
78075;SDS011;67714;52.546;13.422;2023-02-28T00:19:38;11.1;;;5.6;;
78075;SDS011;67714;52.546;13.422;2023-02-28T00:21:40;9.8;;;5.8;;
78075;SDS011;67714;52.546;13.422;2023-02-28T00:23:41;10.3;;;5.4;;
78075;SDS011;67714;52.546;13.422;2023-02-28T00:25:42;9.8;;;5.2;;
78075;SDS011;67714;52.546;13.422;2023-02-28T00:27:44;8.9;;;4.8;;
78075;SDS011;67714;52.546;13.422;2023-02-28T00:29:46;9.4;;;5.1;;
78075;SDS011;67714;52.546;13.422;2023-02-28T00:31:47;9.6;;;5.1;;
78075;SDS011;67714;52.546;13.422;2023-02-28T00:33:48;8.3;;;4.2;;
78075;SDS011;67714;52.546;13.422;2023-02-28T00:35:50;8.4;;;4.8;;
78075;SDS011;67714;52.546;13.422;2023-02-28T00:37:51;10.7;;;5.6;;
78075;SDS011;67714;52.546;13.422;2023-02-28T00:39:52;9.1;;;5;;
78075;SDS011;67714;52.546;13.422;2023-02-28T00:41:53;9.2;;;5;;
78075;SDS011;67714;52.546;13.422;2023-02-28T00:43:54;12.5;;;6.1;;
78075;SDS011;67714;52.546;13.422;2023-02-28T00:45:56;10.4;;;5.1;;
78075;SDS011;67714;52.546;13.422;2023-02-28T00:47:57;7.7;;;4.5;;
78075;SDS011;67714;52.546;13.422;2023-02-28T00:49:58;9.6;;;5.2;;
78075;SDS011;67714;52.546;13.422;2023-02-28T00:51:59;9.2;;;5;;
78075;SDS011;67714;52.546;13.422;2023-02-28T00:54:00;8.2;;;4.7;;
78075;SDS011;67714;52.546;13.422;2023-02-28T00:56:02;8.1;;;4.7;;
78075;SDS011;67714;52.546;13.422;2023-02-28T00:58:04;10.3;;;4.9;;
78075;SDS011;67714;52.546;13.422;2023-02-28T01:00:05;9.9;;;4.8;;
78075;SDS011;67714;52.546;13.422;2023-02-28T01:02:07;12.3;;;5.4;;
78075;SDS011;67714;52.546;13.422;2023-02-28T01:04:09;10.5;;;5.5;;
78075;SDS011;67714;52.546;13.422;2023-02-28T01:06:11;9.4;;;5.2;;
78075;SDS011;67714;52.546;13.422;2023-02-28T01:08:12;9.5;;;5.3;;
78075;SDS011;67714;52.546;13.422;2023-02-28T01:10:13;10.5;;;5.2;;
78075;SDS011;67714;52.546;13.422;2023-02-28T01:12:14;9.7;;;5.4;;
78075;SDS011;67714;52.546;13.422;2023-02-28T01:14:17;9;;;4.8;;
78075;SDS011;67714;52.546;13.422;2023-02-28T01:16:18;10.5;;;5.1;;
78075;SDS011;67714;52.546;13.422;2023-02-28T01:18:20;10.3;;;5.4;;
78075;SDS011;67714;52.546;13.422;2023-02-28T01:20:23;8.7;;;4.8;;
78075;SDS011;67714;52.546;13.422;2023-02-28T01:22:24;9.1;;;5.7;;
78075;SDS011;67714;52.546;13.422;2023-02-28T01:24:25;12.9;;;6.1;;
78075;SDS011;67714;52.546;13.422;2023-02-28T01:26:27;13.1;;;6.5;;
78075;SDS011;67714;52.546;13.422;2023-02-28T01:28:28;11.5;;;5.5;;
78075;SDS011;67714;52.546;13.422;2023-02-28T01:30:29;11.9;;;5.6;;
78075;SDS011;67714;52.546;13.422;2023-02-28T01:32:30;9.1;;;5.1;;
78075;SDS011;67714;52.546;13.422;2023-02-28T01:34:31;11.2;;;6.1;;
78075;SDS011;67714;52.546;13.422;2023-02-28T01:36:32;10.1;;;5.6;;
78075;SDS011;67714;52.546;13.422;2023-02-28T01:38:34;10.5;;;5.3;;
78075;SDS011;67714;52.546;13.422;2023-02-28T01:40:35;10.9;;;5.7;;
78075;SDS011;67714;52.546;13.422;2023-02-28T01:42:36;9.6;;;5.4;;
78075;SDS011;67714;52.546;13.422;2023-02-28T01:44:55;11;;;6.6;;
78075;SDS011;67714;52.546;13.422;2023-02-28T01:46:58;10.8;;;5.9;;
78075;SDS011;67714;52.546;13.422;2023-02-28T01:49:02;10.7;;;5.7;;
78075;SDS011;67714;52.546;13.422;2023-02-28T01:51:06;8.8;;;5.1;;
78075;SDS011;67714;52.546;13.422;2023-02-28T01:53:13;11;;;5.5;;
78075;SDS011;67714;52.546;13.422;2023-02-28T01:55:17;10.3;;;5.8;;
78075;SDS011;67714;52.546;13.422;2023-02-28T01:57:21;10.7;;;5.9;;
78075;SDS011;67714;52.546;13.422;2023-02-28T01:59:29;10;;;6.1;;
78075;SDS011;67714;52.546;13.422;2023-02-28T02:01:35;11.5;;;6;;
78075;SDS011;67714;52.546;13.422;2023-02-28T02:03:36;10.1;;;5.6;;
78075;SDS011;67714;52.546;13.422;2023-02-28T02:05:38;11.5;;;6.2;;
78075;SDS011;67714;52.546;13.422;2023-02-28T02:07:41;11.8;;;6.1;;
78075;SDS011;67714;52.546;13.422;2023-02-28T02:09:44;10.2;;;5.7;;
78075;SDS011;67714;52.546;13.422;2023-02-28T02:11:45;9.7;;;5.8;;
78075;SDS011;67714;52.546;13.422;2023-02-28T02:13:53;9.7;;;5.5;;
78075;SDS011;67714;52.546;13.422;2023-02-28T02:16:04;10.5;;;5.9;;
78075;SDS011;67714;52.546;13.422;2023-02-28T02:18:14;10.6;;;6.3;;
78075;SDS011;67714;52.546;13.422;2023-02-28T02:20:27;10.3;;;5.7;;
78075;SDS011;67714;52.546;13.422;2023-02-28T02:22:45;11.5;;;6.6;;
78075;SDS011;67714;52.546;13.422;2023-02-28T02:24:59;11.5;;;5.9;;
78075;SDS011;67714;52.546;13.422;2023-02-28T02:27:16;9.9;;;5.8;;
78075;SDS011;67714;52.546;13.422;2023-02-28T02:29:26;11.8;;;6.7;;
78075;SDS011;67714;52.546;13.422;2023-02-28T02:31:44;9.6;;;6;;
78075;SDS011;67714;52.546;13.422;2023-02-28T02:35:00;10.7;;;5.6;;
78075;SDS011;67714;52.546;13.422;2023-02-28T02:36:56;9.9;;;6.1;;
78075;SDS011;67714;52.546;13.422;2023-02-28T02:39:04;9.3;;;6;;
78075;SDS011;67714;52.546;13.422;2023-02-28T02:41:10;9.6;;;5.9;;
78075;SDS011;67714;52.546;13.422;2023-02-28T02:43:18;9.6;;;6.1;;
78075;SDS011;67714;52.546;13.422;2023-02-28T02:45:24;9.6;;;5.9;;
78075;SDS011;67714;52.546;13.422;2023-02-28T02:47:29;12.3;;;6.6;;
78075;SDS011;67714;52.546;13.422;2023-02-28T02:49:33;9.7;;;6.1;;
78075;SDS011;67714;52.546;13.422;2023-02-28T02:51:37;11.7;;;6.5;;
78075;SDS011;67714;52.546;13.422;2023-02-28T02:53:40;11.9;;;6.4;;
78075;SDS011;67714;52.546;13.422;2023-02-28T02:55:46;10.8;;;6.6;;
78075;SDS011;67714;52.546;13.422;2023-02-28T02:57:51;10.2;;;6.5;;
78075;SDS011;67714;52.546;13.422;2023-02-28T02:59:54;12.3;;;6.6;;
78075;SDS011;67714;52.546;13.422;2023-02-28T03:01:59;11.3;;;6.3;;
78075;SDS011;67714;52.546;13.422;2023-02-28T03:04:04;11.7;;;6.3;;
78075;SDS011;67714;52.546;13.422;2023-02-28T03:06:08;11.7;;;6.5;;
78075;SDS011;67714;52.546;13.422;2023-02-28T03:08:09;12.8;;;7.1;;
78075;SDS011;67714;52.546;13.422;2023-02-28T03:10:27;11.3;;;6.4;;
78075;SDS011;67714;52.546;13.422;2023-02-28T03:12:32;11.6;;;6.2;;
78075;SDS011;67714;52.546;13.422;2023-02-28T03:14:43;11.8;;;7.1;;
78075;SDS011;67714;52.546;13.422;2023-02-28T03:16:55;11.9;;;6.8;;
78075;SDS011;67714;52.546;13.422;2023-02-28T03:19:03;11.5;;;6.8;;
78075;SDS011;67714;52.546;13.422;2023-02-28T03:21:12;13.5;;;7.5;;
78075;SDS011;67714;52.546;13.422;2023-02-28T03:23:21;10.7;;;6.3;;
78075;SDS011;67714;52.546;13.422;2023-02-28T03:25:28;14.4;;;7.1;;
78075;SDS011;67714;52.546;13.422;2023-02-28T03:27:35;11.5;;;6.5;;
78075;SDS011;67714;52.546;13.422;2023-02-28T03:29:42;12.4;;;6.9;;
78075;SDS011;67714;52.546;13.422;2023-02-28T03:31:48;11.8;;;7.3;;
78075;SDS011;67714;52.546;13.422;2023-02-28T03:33:51;12.7;;;7;;
78075;SDS011;67714;52.546;13.422;2023-02-28T03:36:00;10.3;;;6.6;;
78075;SDS011;67714;52.546;13.422;2023-02-28T03:38:05;12.2;;;7.3;;
78075;SDS011;67714;52.546;13.422;2023-02-28T03:40:11;12.1;;;7;;
78075;SDS011;67714;52.546;13.422;2023-02-28T03:42:18;11.9;;;7.3;;
78075;SDS011;67714;52.546;13.422;2023-02-28T03:44:23;13.3;;;7.1;;
78075;SDS011;67714;52.546;13.422;2023-02-28T03:46:28;12.4;;;7;;
78075;SDS011;67714;52.546;13.422;2023-02-28T03:48:34;12.2;;;7.4;;
78075;SDS011;67714;52.546;13.422;2023-02-28T03:50:41;12.9;;;7.1;;
78075;SDS011;67714;52.546;13.422;2023-02-28T03:52:46;11.3;;;6.9;;
78075;SDS011;67714;52.546;13.422;2023-02-28T03:54:51;13.3;;;7.6;;
78075;SDS011;67714;52.546;13.422;2023-02-28T03:56:56;12.3;;;7.7;;
78075;SDS011;67714;52.546;13.422;2023-02-28T03:59:02;12.7;;;7.5;;
78075;SDS011;67714;52.546;13.422;2023-02-28T04:01:08;14.6;;;7.6;;
78075;SDS011;67714;52.546;13.422;2023-02-28T04:03:13;13.1;;;7.8;;
78075;SDS011;67714;52.546;13.422;2023-02-28T04:05:14;14.9;;;8.2;;
78075;SDS011;67714;52.546;13.422;2023-02-28T04:07:16;13.9;;;7.9;;
78075;SDS011;67714;52.546;13.422;2023-02-28T04:09:17;12.8;;;7.6;;
78075;SDS011;67714;52.546;13.422;2023-02-28T04:11:21;12.7;;;7.6;;
78075;SDS011;67714;52.546;13.422;2023-02-28T04:13:23;16.2;;;8;;
78075;SDS011;67714;52.546;13.422;2023-02-28T04:15:25;14.9;;;8.1;;
78075;SDS011;67714;52.546;13.422;2023-02-28T04:17:26;15.1;;;8.2;;
78075;SDS011;67714;52.546;13.422;2023-02-28T04:19:27;13.8;;;7.7;;
78075;SDS011;67714;52.546;13.422;2023-02-28T04:21:28;14.8;;;8.2;;
78075;SDS011;67714;52.546;13.422;2023-02-28T04:23:30;14.2;;;7.7;;
78075;SDS011;67714;52.546;13.422;2023-02-28T04:25:31;13.4;;;7.5;;
78075;SDS011;67714;52.546;13.422;2023-02-28T04:27:32;14.1;;;8.3;;
78075;SDS011;67714;52.546;13.422;2023-02-28T04:29:34;14;;;8.2;;
78075;SDS011;67714;52.546;13.422;2023-02-28T04:31:35;14.5;;;8.3;;
78075;SDS011;67714;52.546;13.422;2023-02-28T04:33:37;14.1;;;8;;
78075;SDS011;67714;52.546;13.422;2023-02-28T04:35:38;14.8;;;8.4;;
78075;SDS011;67714;52.546;13.422;2023-02-28T04:37:39;15.5;;;8.5;;
78075;SDS011;67714;52.546;13.422;2023-02-28T04:39:41;13.6;;;9;;
78075;SDS011;67714;52.546;13.422;2023-02-28T04:41:43;15.4;;;8.8;;
78075;SDS011;67714;52.546;13.422;2023-02-28T04:43:44;15.9;;;9;;
78075;SDS011;67714;52.546;13.422;2023-02-28T04:45:45;16.4;;;9.1;;
78075;SDS011;67714;52.546;13.422;2023-02-28T04:47:46;15;;;8.2;;
78075;SDS011;67714;52.546;13.422;2023-02-28T04:49:47;14.8;;;8.6;;
78075;SDS011;67714;52.546;13.422;2023-02-28T04:51:48;14.7;;;8.9;;
78075;SDS011;67714;52.546;13.422;2023-02-28T04:53:50;14.9;;;9;;
78075;SDS011;67714;52.546;13.422;2023-02-28T04:55:51;16.8;;;9.4;;
78075;SDS011;67714;52.546;13.422;2023-02-28T04:57:52;13.8;;;7.9;;
78075;SDS011;67714;52.546;13.422;2023-02-28T04:59:53;14.6;;;8.7;;
78075;SDS011;67714;52.546;13.422;2023-02-28T05:01:55;14.7;;;8.2;;
78075;SDS011;67714;52.546;13.422;2023-02-28T05:03:56;19.5;;;10.1;;
78075;SDS011;67714;52.546;13.422;2023-02-28T05:05:59;14.1;;;8.7;;
78075;SDS011;67714;52.546;13.422;2023-02-28T05:08:00;15.5;;;9.5;;
78075;SDS011;67714;52.546;13.422;2023-02-28T05:10:01;15.3;;;9.5;;
78075;SDS011;67714;52.546;13.422;2023-02-28T05:12:02;14.2;;;8.4;;
78075;SDS011;67714;52.546;13.422;2023-02-28T05:14:04;15.5;;;8.2;;
78075;SDS011;67714;52.546;13.422;2023-02-28T05:16:07;15.9;;;8.9;;
78075;SDS011;67714;52.546;13.422;2023-02-28T05:18:08;16;;;9.3;;
78075;SDS011;67714;52.546;13.422;2023-02-28T05:20:10;13.9;;;8.4;;
78075;SDS011;67714;52.546;13.422;2023-02-28T05:22:13;16.4;;;9.1;;
78075;SDS011;67714;52.546;13.422;2023-02-28T05:24:14;15.2;;;8.6;;
78075;SDS011;67714;52.546;13.422;2023-02-28T05:26:15;15.3;;;8.2;;
78075;SDS011;67714;52.546;13.422;2023-02-28T05:28:17;15.3;;;9;;
78075;SDS011;67714;52.546;13.422;2023-02-28T05:30:19;14.1;;;8.7;;
78075;SDS011;67714;52.546;13.422;2023-02-28T05:32:20;14.5;;;8.3;;
78075;SDS011;67714;52.546;13.422;2023-02-28T05:34:22;13.6;;;8.7;;
78075;SDS011;67714;52.546;13.422;2023-02-28T05:36:23;13.9;;;8.7;;
78075;SDS011;67714;52.546;13.422;2023-02-28T05:38:24;15.9;;;9;;
78075;SDS011;67714;52.546;13.422;2023-02-28T05:40:26;15.1;;;8.8;;
78075;SDS011;67714;52.546;13.422;2023-02-28T05:42:28;16.3;;;8.6;;
78075;SDS011;67714;52.546;13.422;2023-02-28T05:44:29;14;;;8.9;;
78075;SDS011;67714;52.546;13.422;2023-02-28T05:46:31;16.5;;;8.9;;
78075;SDS011;67714;52.546;13.422;2023-02-28T05:48:33;15.1;;;8.8;;
78075;SDS011;67714;52.546;13.422;2023-02-28T05:50:36;15.7;;;8.8;;
78075;SDS011;67714;52.546;13.422;2023-02-28T05:52:37;17.7;;;9.3;;
78075;SDS011;67714;52.546;13.422;2023-02-28T05:54:39;15.9;;;9.3;;
78075;SDS011;67714;52.546;13.422;2023-02-28T05:56:41;13.7;;;9.2;;
78075;SDS011;67714;52.546;13.422;2023-02-28T05:58:42;16.8;;;9.5;;
78075;SDS011;67714;52.546;13.422;2023-02-28T06:00:43;15.3;;;9.6;;
78075;SDS011;67714;52.546;13.422;2023-02-28T06:02:44;15.9;;;9.9;;
78075;SDS011;67714;52.546;13.422;2023-02-28T06:04:45;15.6;;;9.3;;
78075;SDS011;67714;52.546;13.422;2023-02-28T06:06:47;14.9;;;9.2;;
78075;SDS011;67714;52.546;13.422;2023-02-28T06:08:49;18.1;;;9.1;;
78075;SDS011;67714;52.546;13.422;2023-02-28T06:10:51;15.4;;;9.5;;
78075;SDS011;67714;52.546;13.422;2023-02-28T06:12:52;16.7;;;9.5;;
78075;SDS011;67714;52.546;13.422;2023-02-28T06:14:53;16.5;;;9.8;;
78075;SDS011;67714;52.546;13.422;2023-02-28T06:16:54;16.5;;;10.2;;
78075;SDS011;67714;52.546;13.422;2023-02-28T06:18:57;17.4;;;9.3;;
78075;SDS011;67714;52.546;13.422;2023-02-28T06:20:58;19.4;;;10.7;;
78075;SDS011;67714;52.546;13.422;2023-02-28T06:23:00;19.9;;;11.2;;
78075;SDS011;67714;52.546;13.422;2023-02-28T06:25:01;18.8;;;10.3;;
78075;SDS011;67714;52.546;13.422;2023-02-28T06:27:03;20.1;;;11.2;;
78075;SDS011;67714;52.546;13.422;2023-02-28T06:29:04;19.5;;;11.8;;
78075;SDS011;67714;52.546;13.422;2023-02-28T06:31:06;21;;;12.2;;
78075;SDS011;67714;52.546;13.422;2023-02-28T06:33:08;19.9;;;12.2;;
78075;SDS011;67714;52.546;13.422;2023-02-28T06:35:09;19;;;11.5;;
78075;SDS011;67714;52.546;13.422;2023-02-28T06:37:10;19.5;;;11.3;;
78075;SDS011;67714;52.546;13.422;2023-02-28T06:39:11;20.7;;;10.9;;
78075;SDS011;67714;52.546;13.422;2023-02-28T06:41:13;19.1;;;11.7;;
78075;SDS011;67714;52.546;13.422;2023-02-28T06:43:14;20.6;;;12.1;;
78075;SDS011;67714;52.546;13.422;2023-02-28T06:45:15;17.8;;;11.7;;
78075;SDS011;67714;52.546;13.422;2023-02-28T06:47:17;17.9;;;11.8;;
78075;SDS011;67714;52.546;13.422;2023-02-28T06:49:18;18.1;;;11.3;;
78075;SDS011;67714;52.546;13.422;2023-02-28T06:51:20;19.9;;;12.2;;
78075;SDS011;67714;52.546;13.422;2023-02-28T06:53:21;19.5;;;12.2;;
78075;SDS011;67714;52.546;13.422;2023-02-28T06:55:22;19.7;;;11.4;;
78075;SDS011;67714;52.546;13.422;2023-02-28T06:57:23;18.2;;;11.3;;
78075;SDS011;67714;52.546;13.422;2023-02-28T06:59:24;18;;;11.7;;
78075;SDS011;67714;52.546;13.422;2023-02-28T07:01:26;17.2;;;11;;
78075;SDS011;67714;52.546;13.422;2023-02-28T07:03:28;16;;;10.5;;
78075;SDS011;67714;52.546;13.422;2023-02-28T07:05:29;16;;;9.8;;
78075;SDS011;67714;52.546;13.422;2023-02-28T07:07:30;15.1;;;9.9;;
78075;SDS011;67714;52.546;13.422;2023-02-28T07:09:32;15.9;;;10.7;;
78075;SDS011;67714;52.546;13.422;2023-02-28T07:11:34;17.1;;;10.3;;
78075;SDS011;67714;52.546;13.422;2023-02-28T07:13:35;16.7;;;10.5;;
78075;SDS011;67714;52.546;13.422;2023-02-28T07:15:37;15.1;;;10;;
78075;SDS011;67714;52.546;13.422;2023-02-28T07:17:39;16.9;;;9.9;;
78075;SDS011;67714;52.546;13.422;2023-02-28T07:19:41;14.8;;;9.8;;
78075;SDS011;67714;52.546;13.422;2023-02-28T07:21:43;15;;;9.4;;
78075;SDS011;67714;52.546;13.422;2023-02-28T07:23:44;14.3;;;9.2;;
78075;SDS011;67714;52.546;13.422;2023-02-28T07:25:45;15;;;9.7;;
78075;SDS011;67714;52.546;13.422;2023-02-28T07:27:47;14.2;;;9.6;;
78075;SDS011;67714;52.546;13.422;2023-02-28T07:29:48;18.1;;;10.5;;
78075;SDS011;67714;52.546;13.422;2023-02-28T07:31:49;17.5;;;9.8;;
78075;SDS011;67714;52.546;13.422;2023-02-28T07:33:50;16.5;;;10.5;;
78075;SDS011;67714;52.546;13.422;2023-02-28T07:35:59;15.4;;;9.9;;
78075;SDS011;67714;52.546;13.422;2023-02-28T07:38:00;16.5;;;10.5;;
78075;SDS011;67714;52.546;13.422;2023-02-28T07:40:02;17.1;;;10.6;;
78075;SDS011;67714;52.546;13.422;2023-02-28T07:42:04;17.1;;;10.1;;
78075;SDS011;67714;52.546;13.422;2023-02-28T07:44:06;15.8;;;10.3;;
78075;SDS011;67714;52.546;13.422;2023-02-28T07:46:12;16.1;;;10.8;;
78075;SDS011;67714;52.546;13.422;2023-02-28T07:48:15;16.8;;;9.9;;
78075;SDS011;67714;52.546;13.422;2023-02-28T07:50:17;18.2;;;11.6;;
78075;SDS011;67714;52.546;13.422;2023-02-28T07:52:18;16.5;;;10.2;;
78075;SDS011;67714;52.546;13.422;2023-02-28T07:54:19;16.3;;;10.2;;
78075;SDS011;67714;52.546;13.422;2023-02-28T07:56:21;15.2;;;9.4;;
78075;SDS011;67714;52.546;13.422;2023-02-28T07:58:24;19.4;;;11;;
78075;SDS011;67714;52.546;13.422;2023-02-28T08:00:25;19.7;;;10.9;;
78075;SDS011;67714;52.546;13.422;2023-02-28T08:02:27;18.8;;;10.9;;
78075;SDS011;67714;52.546;13.422;2023-02-28T08:04:31;14.3;;;9.8;;
78075;SDS011;67714;52.546;13.422;2023-02-28T08:06:32;17.5;;;11.2;;
78075;SDS011;67714;52.546;13.422;2023-02-28T08:08:33;18.2;;;10.7;;
78075;SDS011;67714;52.546;13.422;2023-02-28T08:10:35;19;;;10.9;;
78075;SDS011;67714;52.546;13.422;2023-02-28T08:12:37;17.7;;;10.3;;
78075;SDS011;67714;52.546;13.422;2023-02-28T08:14:38;18.3;;;9.8;;
78075;SDS011;67714;52.546;13.422;2023-02-28T08:16:40;15.7;;;9.3;;
78075;SDS011;67714;52.546;13.422;2023-02-28T08:18:41;17.5;;;9;;
78075;SDS011;67714;52.546;13.422;2023-02-28T08:20:42;15;;;8.7;;
78075;SDS011;67714;52.546;13.422;2023-02-28T08:22:44;13.4;;;8.2;;
78075;SDS011;67714;52.546;13.422;2023-02-28T08:24:45;14.6;;;8.5;;
78075;SDS011;67714;52.546;13.422;2023-02-28T08:26:46;13.7;;;7.7;;
78075;SDS011;67714;52.546;13.422;2023-02-28T08:28:48;14.2;;;8.1;;
78075;SDS011;67714;52.546;13.422;2023-02-28T08:30:49;16.6;;;8.9;;
78075;SDS011;67714;52.546;13.422;2023-02-28T08:32:52;13.2;;;7.7;;
78075;SDS011;67714;52.546;13.422;2023-02-28T08:34:54;11.9;;;5.9;;
78075;SDS011;67714;52.546;13.422;2023-02-28T08:36:58;10;;;5.3;;
78075;SDS011;67714;52.546;13.422;2023-02-28T08:39:00;9.6;;;5.5;;
78075;SDS011;67714;52.546;13.422;2023-02-28T08:41:02;9.7;;;5.1;;
78075;SDS011;67714;52.546;13.422;2023-02-28T08:43:05;8.8;;;5.1;;
78075;SDS011;67714;52.546;13.422;2023-02-28T08:45:07;9.8;;;5.1;;
78075;SDS011;67714;52.546;13.422;2023-02-28T08:47:08;9.6;;;5.3;;
78075;SDS011;67714;52.546;13.422;2023-02-28T08:49:10;9.3;;;4.9;;
78075;SDS011;67714;52.546;13.422;2023-02-28T08:51:13;8.1;;;5.1;;
78075;SDS011;67714;52.546;13.422;2023-02-28T08:53:15;9.6;;;4.8;;
78075;SDS011;67714;52.546;13.422;2023-02-28T08:55:16;8.1;;;4;;
78075;SDS011;67714;52.546;13.422;2023-02-28T08:57:17;10.1;;;4.1;;
78075;SDS011;67714;52.546;13.422;2023-02-28T08:59:19;6.7;;;3.2;;
78075;SDS011;67714;52.546;13.422;2023-02-28T09:01:22;7.2;;;3.9;;
78075;SDS011;67714;52.546;13.422;2023-02-28T09:03:24;6.5;;;3.5;;
78075;SDS011;67714;52.546;13.422;2023-02-28T09:05:25;7.1;;;3.9;;
78075;SDS011;67714;52.546;13.422;2023-02-28T09:07:26;9.5;;;4.1;;
78075;SDS011;67714;52.546;13.422;2023-02-28T09:09:28;7.4;;;3.7;;
78075;SDS011;67714;52.546;13.422;2023-02-28T09:11:30;8.2;;;3.8;;
78075;SDS011;67714;52.546;13.422;2023-02-28T09:13:32;9.5;;;3.6;;
78075;SDS011;67714;52.546;13.422;2023-02-28T09:15:36;6.5;;;3.6;;
78075;SDS011;67714;52.546;13.422;2023-02-28T09:17:38;9.8;;;4;;
78075;SDS011;67714;52.546;13.422;2023-02-28T09:19:39;7.4;;;3.5;;
78075;SDS011;67714;52.546;13.422;2023-02-28T09:21:40;8.3;;;4;;
78075;SDS011;67714;52.546;13.422;2023-02-28T09:23:42;8.5;;;3.9;;
78075;SDS011;67714;52.546;13.422;2023-02-28T09:25:45;8.3;;;4;;
78075;SDS011;67714;52.546;13.422;2023-02-28T09:27:47;7.2;;;3.6;;
78075;SDS011;67714;52.546;13.422;2023-02-28T09:29:49;6.4;;;3.4;;
78075;SDS011;67714;52.546;13.422;2023-02-28T09:31:50;10.1;;;3.9;;
78075;SDS011;67714;52.546;13.422;2023-02-28T09:33:52;6.9;;;3.3;;
78075;SDS011;67714;52.546;13.422;2023-02-28T09:35:57;6.6;;;3.4;;
78075;SDS011;67714;52.546;13.422;2023-02-28T09:38:01;6.7;;;3.4;;
78075;SDS011;67714;52.546;13.422;2023-02-28T09:40:02;5.9;;;3;;
78075;SDS011;67714;52.546;13.422;2023-02-28T09:42:04;6.8;;;3.5;;
78075;SDS011;67714;52.546;13.422;2023-02-28T09:44:05;6.4;;;3.3;;
78075;SDS011;67714;52.546;13.422;2023-02-28T09:46:14;6.4;;;2.9;;
78075;SDS011;67714;52.546;13.422;2023-02-28T09:48:23;6.2;;;2.8;;
78075;SDS011;67714;52.546;13.422;2023-02-28T09:50:29;6.7;;;2.8;;
78075;SDS011;67714;52.546;13.422;2023-02-28T09:52:34;6.8;;;3;;
78075;SDS011;67714;52.546;13.422;2023-02-28T09:54:38;5.5;;;3.3;;
78075;SDS011;67714;52.546;13.422;2023-02-28T09:56:39;5.5;;;2.8;;
78075;SDS011;67714;52.546;13.422;2023-02-28T09:58:45;6;;;3.1;;
78075;SDS011;67714;52.546;13.422;2023-02-28T10:00:52;6.4;;;3;;
78075;SDS011;67714;52.546;13.422;2023-02-28T10:03:02;6.5;;;3.1;;
78075;SDS011;67714;52.546;13.422;2023-02-28T10:05:07;6.7;;;3.3;;
78075;SDS011;67714;52.546;13.422;2023-02-28T10:07:22;5.5;;;3.2;;
78075;SDS011;67714;52.546;13.422;2023-02-28T10:09:31;6.8;;;3.3;;
78075;SDS011;67714;52.546;13.422;2023-02-28T10:11:35;5.8;;;3.4;;
78075;SDS011;67714;52.546;13.422;2023-02-28T10:13:46;5.4;;;3.2;;
78075;SDS011;67714;52.546;13.422;2023-02-28T10:15:52;7.2;;;3.4;;
78075;SDS011;67714;52.546;13.422;2023-02-28T10:18:00;7;;;3.5;;
78075;SDS011;67714;52.546;13.422;2023-02-28T10:20:06;5.7;;;3.1;;
78075;SDS011;67714;52.546;13.422;2023-02-28T10:22:11;6.4;;;3;;
78075;SDS011;67714;52.546;13.422;2023-02-28T10:24:19;6.7;;;3;;
78075;SDS011;67714;52.546;13.422;2023-02-28T10:26:25;6;;;3.2;;
78075;SDS011;67714;52.546;13.422;2023-02-28T10:28:29;5.3;;;2.7;;
78075;SDS011;67714;52.546;13.422;2023-02-28T10:30:36;7.5;;;2.7;;
78075;SDS011;67714;52.546;13.422;2023-02-28T10:32:38;6.5;;;3;;
78075;SDS011;67714;52.546;13.422;2023-02-28T10:34:42;6.1;;;2.8;;
78075;SDS011;67714;52.546;13.422;2023-02-28T10:36:44;5.3;;;2.7;;
78075;SDS011;67714;52.546;13.422;2023-02-28T10:38:46;5.6;;;3;;
78075;SDS011;67714;52.546;13.422;2023-02-28T10:40:50;6;;;3.2;;
78075;SDS011;67714;52.546;13.422;2023-02-28T10:43:01;7.9;;;3;;
78075;SDS011;67714;52.546;13.422;2023-02-28T10:45:05;6.6;;;3.5;;
78075;SDS011;67714;52.546;13.422;2023-02-28T10:47:12;6.5;;;3.4;;
78075;SDS011;67714;52.546;13.422;2023-02-28T10:49:17;6.2;;;3;;
78075;SDS011;67714;52.546;13.422;2023-02-28T10:51:21;6.4;;;3;;
78075;SDS011;67714;52.546;13.422;2023-02-28T10:53:28;6.6;;;3.2;;
78075;SDS011;67714;52.546;13.422;2023-02-28T10:55:31;7.4;;;2.9;;
78075;SDS011;67714;52.546;13.422;2023-02-28T10:57:33;6.5;;;3.1;;
78075;SDS011;67714;52.546;13.422;2023-02-28T10:59:51;6.1;;;2.9;;
78075;SDS011;67714;52.546;13.422;2023-02-28T11:01:53;6;;;2.8;;
78075;SDS011;67714;52.546;13.422;2023-02-28T11:03:55;6;;;2.8;;
78075;SDS011;67714;52.546;13.422;2023-02-28T11:05:57;5.8;;;3;;
78075;SDS011;67714;52.546;13.422;2023-02-28T11:08:04;6.8;;;2.9;;
78075;SDS011;67714;52.546;13.422;2023-02-28T11:10:16;6.1;;;3.1;;
78075;SDS011;67714;52.546;13.422;2023-02-28T11:12:21;5.5;;;2.7;;
78075;SDS011;67714;52.546;13.422;2023-02-28T11:14:25;6.4;;;3.4;;
78075;SDS011;67714;52.546;13.422;2023-02-28T11:16:31;6;;;2.8;;
78075;SDS011;67714;52.546;13.422;2023-02-28T11:18:36;6.6;;;3.7;;
78075;SDS011;67714;52.546;13.422;2023-02-28T11:20:41;6.3;;;3.6;;
78075;SDS011;67714;52.546;13.422;2023-02-28T11:22:43;6;;;3.5;;
78075;SDS011;67714;52.546;13.422;2023-02-28T11:24:46;5.8;;;3.3;;
78075;SDS011;67714;52.546;13.422;2023-02-28T11:26:50;6.4;;;3.5;;
78075;SDS011;67714;52.546;13.422;2023-02-28T11:28:51;6.5;;;3.4;;
78075;SDS011;67714;52.546;13.422;2023-02-28T11:31:15;6.7;;;3.7;;
78075;SDS011;67714;52.546;13.422;2023-02-28T11:33:40;5.5;;;3.5;;
78075;SDS011;67714;52.546;13.422;2023-02-28T11:35:43;6.4;;;3.8;;
78075;SDS011;67714;52.546;13.422;2023-02-28T11:37:44;8;;;3.6;;
78075;SDS011;67714;52.546;13.422;2023-02-28T11:39:46;6.2;;;3.6;;
78075;SDS011;67714;52.546;13.422;2023-02-28T11:41:53;7.4;;;3.7;;
78075;SDS011;67714;52.546;13.422;2023-02-28T11:44:03;7.4;;;3.9;;
78075;SDS011;67714;52.546;13.422;2023-02-28T11:46:14;6.6;;;3.4;;
78075;SDS011;67714;52.546;13.422;2023-02-28T11:48:21;6.7;;;3.7;;
78075;SDS011;67714;52.546;13.422;2023-02-28T11:50:45;6.6;;;3.6;;
78075;SDS011;67714;52.546;13.422;2023-02-28T11:52:53;6.9;;;3.9;;
78075;SDS011;67714;52.546;13.422;2023-02-28T11:54:59;6.8;;;3.6;;
78075;SDS011;67714;52.546;13.422;2023-02-28T11:57:12;7;;;3.8;;
78075;SDS011;67714;52.546;13.422;2023-02-28T11:59:32;6.6;;;3.4;;
78075;SDS011;67714;52.546;13.422;2023-02-28T12:01:45;7;;;3.5;;
78075;SDS011;67714;52.546;13.422;2023-02-28T12:03:57;7.3;;;3.5;;
78075;SDS011;67714;52.546;13.422;2023-02-28T12:06:06;7;;;3.7;;
78075;SDS011;67714;52.546;13.422;2023-02-28T12:08:18;7.2;;;3.5;;
78075;SDS011;67714;52.546;13.422;2023-02-28T12:10:28;6.8;;;3.7;;
78075;SDS011;67714;52.546;13.422;2023-02-28T12:12:34;7.2;;;3.8;;
78075;SDS011;67714;52.546;13.422;2023-02-28T12:14:46;7.1;;;4.1;;
78075;SDS011;67714;52.546;13.422;2023-02-28T12:16:54;8.7;;;4.3;;
78075;SDS011;67714;52.546;13.422;2023-02-28T12:19:07;7.1;;;4;;
78075;SDS011;67714;52.546;13.422;2023-02-28T12:21:14;7.6;;;4.2;;
